6NK8 weather

Flying K Airport
Oneida, New York, United States

Public forecast

Using degrees Fahrenheit for public forecast. Weather courtesy of forecast.io.

Closest aviation weather report (METAR) to Flying K Airport

Closest report is Oswego County Airport, 23.3 nm (43.1 km) NNE. Retrieved 2019/10/23 08:54 UTC (23 minutes ago):

KFZY 230854Z AUTO 10SM CLR 09/06 A2983 RMK AO2 SLP103 T00940061 51009

Closest aviation forecast (TAF) to Flying K Airport

Closest forecast is Syracuse Hancock International Airport, 24.2 nm (44.8 km) ENE. Retrieved 2019/10/23 06:48 UTC (2 hours ago):

TAF KSYR 230546Z 2306/2406 24005KT P6SM BKN040 FM231500 25012G19KT P6SM BKN040 FM232200 24009KT P6SM SCT050 FM240200 22006KT P6SM SKC